sensor_id;sensor_type;location;lat;lon;timestamp;pressure;altitude;pressure_sealevel;temperature;humidity
24422;BME280;12600;53.326;-6.298;2022-12-18T00:00:57;101036.22;;;4.17;84.41
24422;BME280;12600;53.326;-6.298;2022-12-18T00:03:47;101023.72;;;4.11;84.39
24422;BME280;12600;53.326;-6.298;2022-12-18T00:06:38;101022.44;;;4.19;84.47
24422;BME280;12600;53.326;-6.298;2022-12-18T00:09:28;101021.84;;;4.17;85.05
24422;BME280;12600;53.326;-6.298;2022-12-18T00:12:26;101017.03;;;4.19;84.55
24422;BME280;12600;53.326;-6.298;2022-12-18T00:15:17;101025.75;;;4.26;84.95
24422;BME280;12600;53.326;-6.298;2022-12-18T00:18:07;101038.22;;;4.32;85.54
24422;BME280;12600;53.326;-6.298;2022-12-18T00:20:59;101032.91;;;4.42;86.80
24422;BME280;12600;53.326;-6.298;2022-12-18T00:23:51;101033.56;;;4.60;86.41
24422;BME280;12600;53.326;-6.298;2022-12-18T00:26:40;101030.66;;;4.66;86.55
24422;BME280;12600;53.326;-6.298;2022-12-18T00:29:31;101035.03;;;4.77;86.48
24422;BME280;12600;53.326;-6.298;2022-12-18T00:32:20;101041.31;;;4.88;86.30
24422;BME280;12600;53.326;-6.298;2022-12-18T00:35:10;101053.81;;;4.89;86.46
24422;BME280;12600;53.326;-6.298;2022-12-18T00:37:59;101038.88;;;4.87;86.14
24422;BME280;12600;53.326;-6.298;2022-12-18T00:40:50;101048.13;;;4.91;85.43
24422;BME280;12600;53.326;-6.298;2022-12-18T00:43:39;101025.06;;;4.83;86.38
24422;BME280;12600;53.326;-6.298;2022-12-18T00:46:29;101028.38;;;4.90;86.02
24422;BME280;12600;53.326;-6.298;2022-12-18T00:49:20;101024.28;;;4.88;86.08
24422;BME280;12600;53.326;-6.298;2022-12-18T00:52:09;101016.16;;;4.88;86.03
24422;BME280;12600;53.326;-6.298;2022-12-18T00:54:59;101013.72;;;4.86;85.91
24422;BME280;12600;53.326;-6.298;2022-12-18T00:57:54;101004.78;;;4.86;86.20
24422;BME280;12600;53.326;-6.298;2022-12-18T01:00:44;100997.25;;;4.93;86.69
24422;BME280;12600;53.326;-6.298;2022-12-18T01:03:33;100997.28;;;4.98;87.26
24422;BME280;12600;53.326;-6.298;2022-12-18T01:06:23;100996.19;;;5.04;87.12
24422;BME280;12600;53.326;-6.298;2022-12-18T01:09:13;100990.28;;;5.07;87.31
24422;BME280;12600;53.326;-6.298;2022-12-18T01:12:02;100994.09;;;5.16;87.35
24422;BME280;12600;53.326;-6.298;2022-12-18T01:14:53;100986.81;;;5.22;87.39
24422;BME280;12600;53.326;-6.298;2022-12-18T01:17:43;100980.03;;;5.24;87.37
24422;BME280;12600;53.326;-6.298;2022-12-18T01:20:32;100988.47;;;5.33;87.21
24422;BME280;12600;53.326;-6.298;2022-12-18T01:23:22;100982.00;;;5.39;88.28
24422;BME280;12600;53.326;-6.298;2022-12-18T01:26:15;100968.44;;;5.44;89.24
24422;BME280;12600;53.326;-6.298;2022-12-18T01:29:04;100965.50;;;5.56;88.86
24422;BME280;12600;53.326;-6.298;2022-12-18T01:31:56;100978.28;;;5.76;89.29
24422;BME280;12600;53.326;-6.298;2022-12-18T01:34:46;100962.84;;;5.86;88.97
24422;BME280;12600;53.326;-6.298;2022-12-18T01:37:35;100952.31;;;5.95;88.12
24422;BME280;12600;53.326;-6.298;2022-12-18T01:40:25;100954.44;;;6.08;88.98
24422;BME280;12600;53.326;-6.298;2022-12-18T01:43:14;100934.91;;;6.16;88.43
24422;BME280;12600;53.326;-6.298;2022-12-18T01:46:04;100939.25;;;6.33;87.68
24422;BME280;12600;53.326;-6.298;2022-12-18T01:48:58;100921.34;;;6.32;87.61
24422;BME280;12600;53.326;-6.298;2022-12-18T01:51:48;100909.41;;;6.33;87.49
24422;BME280;12600;53.326;-6.298;2022-12-18T01:54:38;100916.72;;;6.32;86.96
24422;BME280;12600;53.326;-6.298;2022-12-18T01:57:28;100906.44;;;6.24;86.83
24422;BME280;12600;53.326;-6.298;2022-12-18T02:00:20;100878.47;;;6.24;87.15
24422;BME280;12600;53.326;-6.298;2022-12-18T02:03:11;100868.19;;;6.26;86.80
24422;BME280;12600;53.326;-6.298;2022-12-18T02:06:11;100868.19;;;6.26;87.10
24422;BME280;12600;53.326;-6.298;2022-12-18T02:09:10;100865.47;;;6.26;87.86
24422;BME280;12600;53.326;-6.298;2022-12-18T02:12:10;100860.53;;;6.33;87.23
24422;BME280;12600;53.326;-6.298;2022-12-18T02:15:09;100858.41;;;6.35;86.78
24422;BME280;12600;53.326;-6.298;2022-12-18T02:18:07;100877.91;;;6.42;86.73
24422;BME280;12600;53.326;-6.298;2022-12-18T02:21:04;100880.91;;;6.35;86.60
24422;BME280;12600;53.326;-6.298;2022-12-18T02:24:13;100869.78;;;6.32;85.64
24422;BME280;12600;53.326;-6.298;2022-12-18T02:27:09;100863.00;;;6.34;85.93
24422;BME280;12600;53.326;-6.298;2022-12-18T02:30:02;100862.69;;;6.51;84.76
24422;BME280;12600;53.326;-6.298;2022-12-18T02:32:53;100866.41;;;6.76;84.16
24422;BME280;12600;53.326;-6.298;2022-12-18T02:35:44;100854.44;;;6.77;84.37
24422;BME280;12600;53.326;-6.298;2022-12-18T02:38:35;100843.56;;;6.77;84.52
24422;BME280;12600;53.326;-6.298;2022-12-18T02:41:32;100847.34;;;6.81;84.19
24422;BME280;12600;53.326;-6.298;2022-12-18T02:44:24;100851.13;;;6.85;83.26
24422;BME280;12600;53.326;-6.298;2022-12-18T02:47:17;100858.72;;;6.88;83.71
24422;BME280;12600;53.326;-6.298;2022-12-18T02:50:13;100864.16;;;6.88;83.73
24422;BME280;12600;53.326;-6.298;2022-12-18T02:53:14;100837.28;;;6.86;83.83
24422;BME280;12600;53.326;-6.298;2022-12-18T02:56:12;100839.38;;;6.99;84.36
24422;BME280;12600;53.326;-6.298;2022-12-18T02:59:06;100827.72;;;6.99;84.41
24422;BME280;12600;53.326;-6.298;2022-12-18T03:02:12;100813.84;;;6.95;84.81
24422;BME280;12600;53.326;-6.298;2022-12-18T03:05:12;100818.97;;;7.07;84.87
24422;BME280;12600;53.326;-6.298;2022-12-18T03:08:07;100812.47;;;7.03;85.90
24422;BME280;12600;53.326;-6.298;2022-12-18T03:11:03;100796.63;;;7.15;85.68
24422;BME280;12600;53.326;-6.298;2022-12-18T03:13:56;100778.72;;;7.14;85.91
24422;BME280;12600;53.326;-6.298;2022-12-18T03:16:47;100769.72;;;7.14;86.25
24422;BME280;12600;53.326;-6.298;2022-12-18T03:19:41;100755.28;;;7.18;86.12
24422;BME280;12600;53.326;-6.298;2022-12-18T03:22:34;100754.09;;;7.29;85.60
24422;BME280;12600;53.326;-6.298;2022-12-18T03:25:26;100743.28;;;7.24;86.11
24422;BME280;12600;53.326;-6.298;2022-12-18T03:28:21;100734.28;;;7.29;85.78
24422;BME280;12600;53.326;-6.298;2022-12-18T03:31:22;100732.66;;;7.28;85.66
24422;BME280;12600;53.326;-6.298;2022-12-18T03:34:15;100718.03;;;7.24;85.27
24422;BME280;12600;53.326;-6.298;2022-12-18T03:37:09;100733.59;;;7.47;84.90
24422;BME280;12600;53.326;-6.298;2022-12-18T03:39:58;100723.16;;;7.31;84.56
24422;BME280;12600;53.326;-6.298;2022-12-18T03:42:53;100758.09;;;7.42;84.39
24422;BME280;12600;53.326;-6.298;2022-12-18T03:45:51;100750.72;;;7.48;83.96
24422;BME280;12600;53.326;-6.298;2022-12-18T03:48:48;100727.38;;;7.42;84.12
24422;BME280;12600;53.326;-6.298;2022-12-18T03:51:47;100751.00;;;7.46;83.73
24422;BME280;12600;53.326;-6.298;2022-12-18T03:54:39;100750.16;;;7.46;83.04
24422;BME280;12600;53.326;-6.298;2022-12-18T03:57:34;100739.84;;;7.48;82.80
24422;BME280;12600;53.326;-6.298;2022-12-18T04:00:25;100726.28;;;7.43;83.02
24422;BME280;12600;53.326;-6.298;2022-12-18T04:03:25;100720.25;;;7.46;83.21
24422;BME280;12600;53.326;-6.298;2022-12-18T04:06:17;100716.81;;;7.40;82.83
24422;BME280;12600;53.326;-6.298;2022-12-18T04:09:07;100698.88;;;7.39;83.10
24422;BME280;12600;53.326;-6.298;2022-12-18T04:12:02;100720.22;;;7.51;82.54
24422;BME280;12600;53.326;-6.298;2022-12-18T04:14:52;100718.81;;;7.53;83.01
24422;BME280;12600;53.326;-6.298;2022-12-18T04:17:48;100700.91;;;7.52;82.34
24422;BME280;12600;53.326;-6.298;2022-12-18T04:20:42;100720.19;;;7.56;82.42
24422;BME280;12600;53.326;-6.298;2022-12-18T04:23:32;100698.91;;;7.63;82.97
24422;BME280;12600;53.326;-6.298;2022-12-18T04:26:22;100699.94;;;7.67;82.74
24422;BME280;12600;53.326;-6.298;2022-12-18T04:29:24;100684.44;;;7.68;83.01
24422;BME280;12600;53.326;-6.298;2022-12-18T04:32:14;100683.31;;;7.69;83.13
24422;BME280;12600;53.326;-6.298;2022-12-18T04:35:05;100580.25;;;7.24;82.70
24422;BME280;12600;53.326;-6.298;2022-12-18T04:38:01;100656.84;;;7.79;82.78
24422;BME280;12600;53.326;-6.298;2022-12-18T04:40:51;100658.81;;;7.74;82.60
24422;BME280;12600;53.326;-6.298;2022-12-18T04:43:45;100648.72;;;7.74;82.62
24422;BME280;12600;53.326;-6.298;2022-12-18T04:46:36;100648.72;;;7.74;82.30
24422;BME280;12600;53.326;-6.298;2022-12-18T04:49:26;100643.25;;;7.79;83.10
24422;BME280;12600;53.326;-6.298;2022-12-18T04:52:15;100643.81;;;7.76;83.28
24422;BME280;12600;53.326;-6.298;2022-12-18T04:55:05;100623.66;;;7.77;82.99
24422;BME280;12600;53.326;-6.298;2022-12-18T04:57:55;100631.47;;;7.84;82.95
24422;BME280;12600;53.326;-6.298;2022-12-18T05:00:44;100626.56;;;7.86;83.30
24422;BME280;12600;53.326;-6.298;2022-12-18T05:03:36;100617.31;;;7.87;82.99
24422;BME280;12600;53.326;-6.298;2022-12-18T05:06:26;100600.91;;;7.92;82.94
24422;BME280;12600;53.326;-6.298;2022-12-18T05:09:15;100593.53;;;7.93;83.04
24422;BME280;12600;53.326;-6.298;2022-12-18T05:12:06;100595.47;;;7.92;82.92
24422;BME280;12600;53.326;-6.298;2022-12-18T05:14:55;100586.78;;;7.90;83.01
24422;BME280;12600;53.326;-6.298;2022-12-18T05:17:45;100569.16;;;7.88;83.60
24422;BME280;12600;53.326;-6.298;2022-12-18T05:20:35;100555.00;;;7.85;83.43
24422;BME280;12600;53.326;-6.298;2022-12-18T05:23:25;100548.09;;;7.74;84.04
24422;BME280;12600;53.326;-6.298;2022-12-18T05:26:17;100539.66;;;7.76;84.22
24422;BME280;12600;53.326;-6.298;2022-12-18T05:29:07;100534.22;;;7.76;84.17
24422;BME280;12600;53.326;-6.298;2022-12-18T05:32:00;100539.66;;;7.76;84.66
24422;BME280;12600;53.326;-6.298;2022-12-18T05:34:50;100524.59;;;7.83;84.48
24422;BME280;12600;53.326;-6.298;2022-12-18T05:37:40;100521.97;;;7.78;85.01
24422;BME280;12600;53.326;-6.298;2022-12-18T05:40:30;100513.19;;;7.81;84.46
24422;BME280;12600;53.326;-6.298;2022-12-18T05:43:21;100502.75;;;7.70;84.58
24422;BME280;12600;53.326;-6.298;2022-12-18T05:46:14;100506.13;;;7.62;85.55
24422;BME280;12600;53.326;-6.298;2022-12-18T05:49:04;100504.16;;;7.67;85.18
24422;BME280;12600;53.326;-6.298;2022-12-18T05:51:53;100496.09;;;7.62;85.13
24422;BME280;12600;53.326;-6.298;2022-12-18T05:54:44;100507.16;;;7.66;85.44
24422;BME280;12600;53.326;-6.298;2022-12-18T05:57:33;100490.75;;;7.52;85.86
24422;BME280;12600;53.326;-6.298;2022-12-18T06:00:23;100502.09;;;7.59;85.52
24422;BME280;12600;53.326;-6.298;2022-12-18T06:03:13;100504.06;;;7.53;85.92
24422;BME280;12600;53.326;-6.298;2022-12-18T06:06:03;100507.53;;;7.59;85.33
24422;BME280;12600;53.326;-6.298;2022-12-18T06:08:54;100478.34;;;7.46;85.81
24422;BME280;12600;53.326;-6.298;2022-12-18T06:11:46;100499.00;;;7.47;86.02
24422;BME280;12600;53.326;-6.298;2022-12-18T06:14:35;100472.97;;;7.41;86.71
24422;BME280;12600;53.326;-6.298;2022-12-18T06:17:28;100470.56;;;7.39;86.46
24422;BME280;12600;53.326;-6.298;2022-12-18T06:20:18;100465.94;;;7.40;86.54
24422;BME280;12600;53.326;-6.298;2022-12-18T06:23:07;100468.06;;;7.43;86.78
24422;BME280;12600;53.326;-6.298;2022-12-18T06:25:57;100441.88;;;7.28;86.94
24422;BME280;12600;53.326;-6.298;2022-12-18T06:28:48;100429.63;;;7.31;86.55
24422;BME280;12600;53.326;-6.298;2022-12-18T06:31:38;100457.13;;;7.48;86.73
24422;BME280;12600;53.326;-6.298;2022-12-18T06:34:27;100435.63;;;7.27;86.95
24422;BME280;12600;53.326;-6.298;2022-12-18T06:37:17;100431.63;;;7.44;86.15
24422;BME280;12600;53.326;-6.298;2022-12-18T06:40:07;100426.53;;;7.37;86.49
24422;BME280;12600;53.326;-6.298;2022-12-18T06:42:57;100420.28;;;7.37;86.67
24422;BME280;12600;53.326;-6.298;2022-12-18T06:45:48;100404.28;;;7.35;86.09
24422;BME280;12600;53.326;-6.298;2022-12-18T06:48:40;100394.16;;;7.41;85.57
24422;BME280;12600;53.326;-6.298;2022-12-18T06:51:30;100389.81;;;7.40;85.17
24422;BME280;12600;53.326;-6.298;2022-12-18T06:54:19;100399.59;;;7.41;85.33
24422;BME280;12600;53.326;-6.298;2022-12-18T06:57:09;100393.22;;;7.32;84.99
24422;BME280;12600;53.326;-6.298;2022-12-18T06:59:58;100388.34;;;7.28;85.12
24422;BME280;12600;53.326;-6.298;2022-12-18T07:02:49;100393.56;;;7.25;84.90
24422;BME280;12600;53.326;-6.298;2022-12-18T07:05:40;100361.38;;;7.13;85.03
24422;BME280;12600;53.326;-6.298;2022-12-18T07:08:30;100384.22;;;7.12;84.41
24422;BME280;12600;53.326;-6.298;2022-12-18T07:11:20;100363.94;;;7.05;84.02
24422;BME280;12600;53.326;-6.298;2022-12-18T07:14:09;100362.78;;;7.11;84.56
24422;BME280;12600;53.326;-6.298;2022-12-18T07:16:59;100350.59;;;7.08;84.92
24422;BME280;12600;53.326;-6.298;2022-12-18T07:19:50;100354.13;;;6.90;84.57
24422;BME280;12600;53.326;-6.298;2022-12-18T07:22:39;100320.63;;;6.76;84.76
24422;BME280;12600;53.326;-6.298;2022-12-18T07:25:28;100329.91;;;6.93;84.17
24422;BME280;12600;53.326;-6.298;2022-12-18T07:28:17;100319.03;;;6.93;83.75
24422;BME280;12600;53.326;-6.298;2022-12-18T07:31:10;100305.31;;;6.85;84.07
24422;BME280;12600;53.326;-6.298;2022-12-18T07:34:00;100301.78;;;6.84;83.48
24422;BME280;12600;53.326;-6.298;2022-12-18T07:36:50;100304.09;;;6.72;83.51
24422;BME280;12600;53.326;-6.298;2022-12-18T07:39:40;100294.50;;;6.80;83.27
24422;BME280;12600;53.326;-6.298;2022-12-18T07:42:29;100285.25;;;6.81;83.16
24422;BME280;12600;53.326;-6.298;2022-12-18T07:45:23;100269.41;;;6.69;83.71
24422;BME280;12600;53.326;-6.298;2022-12-18T07:48:12;100250.91;;;6.71;83.34
24422;BME280;12600;53.326;-6.298;2022-12-18T07:51:03;100240.78;;;6.77;83.66
24422;BME280;12600;53.326;-6.298;2022-12-18T07:53:54;100228.88;;;6.72;83.74
24422;BME280;12600;53.326;-6.298;2022-12-18T07:56:44;100215.75;;;6.80;83.98
24422;BME280;12600;53.326;-6.298;2022-12-18T07:59:33;100208.56;;;6.89;83.55
24422;BME280;12600;53.326;-6.298;2022-12-18T08:02:22;100203.34;;;6.92;83.51
24422;BME280;12600;53.326;-6.298;2022-12-18T08:05:12;100201.66;;;6.96;83.32
24422;BME280;12600;53.326;-6.298;2022-12-18T08:08:01;100182.94;;;6.95;83.75
24422;BME280;12600;53.326;-6.298;2022-12-18T08:10:52;100169.03;;;6.83;84.29
24422;BME280;12600;53.326;-6.298;2022-12-18T08:13:42;100160.09;;;6.82;84.34
24422;BME280;12600;53.326;-6.298;2022-12-18T08:16:31;100164.03;;;6.90;84.19
24422;BME280;12600;53.326;-6.298;2022-12-18T08:19:20;100157.81;;;7.03;84.04
24422;BME280;12600;53.326;-6.298;2022-12-18T08:22:10;100138.22;;;7.06;84.45
24422;BME280;12600;53.326;-6.298;2022-12-18T08:24:59;100143.44;;;7.03;84.71
24422;BME280;12600;53.326;-6.298;2022-12-18T08:27:50;100142.94;;;7.00;84.42
24422;BME280;12600;53.326;-6.298;2022-12-18T08:30:39;100127.13;;;7.03;84.96
24422;BME280;12600;53.326;-6.298;2022-12-18T08:33:28;100128.44;;;7.05;84.76
24422;BME280;12600;53.326;-6.298;2022-12-18T08:36:18;100098.66;;;7.00;85.35
24422;BME280;12600;53.326;-6.298;2022-12-18T08:39:08;100089.59;;;7.05;85.33
24422;BME280;12600;53.326;-6.298;2022-12-18T08:41:58;100087.13;;;7.08;85.54
24422;BME280;12600;53.326;-6.298;2022-12-18T08:45:07;100078.34;;;7.11;85.73
24422;BME280;12600;53.326;-6.298;2022-12-18T08:47:57;100054.72;;;7.12;85.28
24422;BME280;12600;53.326;-6.298;2022-12-18T08:50:54;100059.84;;;7.13;85.91
24422;BME280;12600;53.326;-6.298;2022-12-18T08:53:44;100043.34;;;7.10;86.29
24422;BME280;12600;53.326;-6.298;2022-12-18T08:56:34;100049.78;;;7.14;86.96
24422;BME280;12600;53.326;-6.298;2022-12-18T08:59:23;100054.53;;;7.22;86.72
24422;BME280;12600;53.326;-6.298;2022-12-18T09:02:16;100051.41;;;7.28;86.28
24422;BME280;12600;53.326;-6.298;2022-12-18T09:05:06;100044.97;;;7.24;86.76
24422;BME280;12600;53.326;-6.298;2022-12-18T09:07:55;100021.09;;;7.21;87.49
24422;BME280;12600;53.326;-6.298;2022-12-18T09:10:48;100033.59;;;7.22;87.54
24422;BME280;12600;53.326;-6.298;2022-12-18T09:13:38;100040.34;;;7.25;87.62
24422;BME280;12600;53.326;-6.298;2022-12-18T09:16:29;100014.47;;;7.27;87.83
24422;BME280;12600;53.326;-6.298;2022-12-18T09:19:21;100022.13;;;7.39;87.54
24422;BME280;12600;53.326;-6.298;2022-12-18T09:22:10;100024.53;;;7.41;87.84
24422;BME280;12600;53.326;-6.298;2022-12-18T09:24:59;100018.38;;;7.49;87.47
24422;BME280;12600;53.326;-6.298;2022-12-18T09:27:49;99992.50;;;7.38;88.42
24422;BME280;12600;53.326;-6.298;2022-12-18T09:30:39;99978.34;;;7.41;88.84
24422;BME280;12600;53.326;-6.298;2022-12-18T09:33:28;99968.16;;;7.46;87.89
24422;BME280;12600;53.326;-6.298;2022-12-18T09:36:19;99970.44;;;7.53;88.09
24422;BME280;12600;53.326;-6.298;2022-12-18T09:39:08;99948.69;;;7.53;88.61
24422;BME280;12600;53.326;-6.298;2022-12-18T09:41:58;99962.81;;;7.55;88.24
24422;BME280;12600;53.326;-6.298;2022-12-18T09:44:51;99950.09;;;7.64;88.46
24422;BME280;12600;53.326;-6.298;2022-12-18T09:47:43;99936.63;;;7.59;88.45
24422;BME280;12600;53.326;-6.298;2022-12-18T09:50:37;99947.88;;;7.66;88.36
24422;BME280;12600;53.326;-6.298;2022-12-18T09:53:33;99940.34;;;7.63;88.55
24422;BME280;12600;53.326;-6.298;2022-12-18T09:56:28;99922.28;;;7.67;88.32
24422;BME280;12600;53.326;-6.298;2022-12-18T09:59:26;99937.00;;;7.66;88.94
24422;BME280;12600;53.326;-6.298;2022-12-18T10:02:20;99914.19;;;7.76;88.60
24422;BME280;12600;53.326;-6.298;2022-12-18T10:05:14;99911.38;;;7.81;88.74
24422;BME280;12600;53.326;-6.298;2022-12-18T10:08:10;99897.09;;;7.75;88.41
24422;BME280;12600;53.326;-6.298;2022-12-18T10:11:23;99919.97;;;7.97;88.36
24422;BME280;12600;53.326;-6.298;2022-12-18T10:14:23;99911.00;;;7.96;88.37
24422;BME280;12600;53.326;-6.298;2022-12-18T10:17:28;99911.75;;;7.88;88.40
24422;BME280;12600;53.326;-6.298;2022-12-18T10:20:32;99931.44;;;7.94;88.45
24422;BME280;12600;53.326;-6.298;2022-12-18T10:23:28;99916.25;;;7.93;88.51
24422;BME280;12600;53.326;-6.298;2022-12-18T10:26:21;99909.56;;;7.99;88.71
24422;BME280;12600;53.326;-6.298;2022-12-18T10:29:12;99911.59;;;7.93;89.11
24422;BME280;12600;53.326;-6.298;2022-12-18T10:32:02;99903.63;;;7.97;88.91
24422;BME280;12600;53.326;-6.298;2022-12-18T10:34:56;99916.13;;;7.98;89.15
24422;BME280;12600;53.326;-6.298;2022-12-18T10:38:04;99916.81;;;8.03;88.56
24422;BME280;12600;53.326;-6.298;2022-12-18T10:40:57;99874.47;;;7.89;88.85
24422;BME280;12600;53.326;-6.298;2022-12-18T10:43:49;99908.94;;;8.02;88.94
24422;BME280;12600;53.326;-6.298;2022-12-18T10:47:04;99882.47;;;7.94;89.10
24422;BME280;12600;53.326;-6.298;2022-12-18T10:49:58;99902.56;;;8.06;89.95
24422;BME280;12600;53.326;-6.298;2022-12-18T10:52:55;99882.19;;;7.95;90.35
24422;BME280;12600;53.326;-6.298;2022-12-18T10:55:47;99876.94;;;7.99;90.23
24422;BME280;12600;53.326;-6.298;2022-12-18T10:58:38;99886.38;;;8.01;90.80
24422;BME280;12600;53.326;-6.298;2022-12-18T11:01:46;99867.78;;;7.95;90.76
24422;BME280;12600;53.326;-6.298;2022-12-18T11:04:51;99875.81;;;8.00;91.62
24422;BME280;12600;53.326;-6.298;2022-12-18T11:07:49;99874.22;;;7.99;91.79
24422;BME280;12600;53.326;-6.298;2022-12-18T11:10:39;99859.97;;;8.02;91.22
24422;BME280;12600;53.326;-6.298;2022-12-18T11:13:30;99841.19;;;7.92;92.56
24422;BME280;12600;53.326;-6.298;2022-12-18T11:16:20;99843.53;;;8.07;92.30
24422;BME280;12600;53.326;-6.298;2022-12-18T11:19:28;99810.41;;;8.05;92.52
24422;BME280;12600;53.326;-6.298;2022-12-18T11:22:21;99806.88;;;8.04;92.29
24422;BME280;12600;53.326;-6.298;2022-12-18T11:25:18;99814.19;;;8.26;92.05
24422;BME280;12600;53.326;-6.298;2022-12-18T11:28:37;99780.53;;;8.22;92.48
24422;BME280;12600;53.326;-6.298;2022-12-18T11:31:28;99794.03;;;8.27;92.58
24422;BME280;12600;53.326;-6.298;2022-12-18T11:34:27;99773.84;;;8.28;93.00
24422;BME280;12600;53.326;-6.298;2022-12-18T11:37:18;99777.22;;;8.34;93.04
24422;BME280;12600;53.326;-6.298;2022-12-18T11:40:15;99745.03;;;8.27;93.30
24422;BME280;12600;53.326;-6.298;2022-12-18T11:43:10;99742.53;;;8.39;93.02
24422;BME280;12600;53.326;-6.298;2022-12-18T11:46:08;99742.88;;;8.47;93.16
24422;BME280;12600;53.326;-6.298;2022-12-18T11:49:11;99730.06;;;8.47;93.03
24422;BME280;12600;53.326;-6.298;2022-12-18T11:52:13;99730.41;;;8.63;93.09
24422;BME280;12600;53.326;-6.298;2022-12-18T11:55:12;99716.31;;;8.69;93.41
24422;BME280;12600;53.326;-6.298;2022-12-18T11:58:10;99701.25;;;8.81;93.59
24422;BME280;12600;53.326;-6.298;2022-12-18T12:01:13;99686.81;;;8.97;93.46
24422;BME280;12600;53.326;-6.298;2022-12-18T12:04:57;99693.22;;;9.19;93.27
24422;BME280;12600;53.326;-6.298;2022-12-18T12:08:01;99688.72;;;9.32;92.62
24422;BME280;12600;53.326;-6.298;2022-12-18T12:11:03;99668.16;;;9.43;92.49
24422;BME280;12600;53.326;-6.298;2022-12-18T12:14:15;99659.97;;;9.43;92.32
24422;BME280;12600;53.326;-6.298;2022-12-18T12:17:19;99654.63;;;9.64;92.27
24422;BME280;12600;53.326;-6.298;2022-12-18T12:20:18;99639.47;;;9.75;91.65
24422;BME280;12600;53.326;-6.298;2022-12-18T12:23:19;99651.34;;;9.79;91.83
24422;BME280;12600;53.326;-6.298;2022-12-18T12:26:21;99633.50;;;9.81;91.76
24422;BME280;12600;53.326;-6.298;2022-12-18T12:29:29;99633.78;;;9.89;91.82
24422;BME280;12600;53.326;-6.298;2022-12-18T12:32:38;99631.03;;;9.97;91.83
24422;BME280;12600;53.326;-6.298;2022-12-18T12:35:40;99604.72;;;9.93;91.79
24422;BME280;12600;53.326;-6.298;2022-12-18T12:38:40;99584.47;;;9.94;92.17
24422;BME280;12600;53.326;-6.298;2022-12-18T12:41:39;99601.22;;;10.13;91.94
24422;BME280;12600;53.326;-6.298;2022-12-18T12:44:51;99577.09;;;10.24;91.99
24422;BME280;12600;53.326;-6.298;2022-12-18T12:47:44;99565.03;;;10.25;92.28
24422;BME280;12600;53.326;-6.298;2022-12-18T12:50:36;99559.09;;;10.44;92.31
24422;BME280;12600;53.326;-6.298;2022-12-18T12:53:32;99542.84;;;10.47;91.82
24422;BME280;12600;53.326;-6.298;2022-12-18T12:56:40;99552.69;;;10.60;91.92
24422;BME280;12600;53.326;-6.298;2022-12-18T12:59:41;99543.13;;;10.67;91.48
24422;BME280;12600;53.326;-6.298;2022-12-18T13:02:44;99524.50;;;10.69;91.32
24422;BME280;12600;53.326;-6.298;2022-12-18T13:05:43;99519.38;;;10.67;90.62
24422;BME280;12600;53.326;-6.298;2022-12-18T13:08:53;99499.19;;;10.59;90.68
24422;BME280;12600;53.326;-6.298;2022-12-18T13:11:46;99496.47;;;10.72;91.00
24422;BME280;12600;53.326;-6.298;2022-12-18T13:14:53;99499.56;;;10.70;90.71
24422;BME280;12600;53.326;-6.298;2022-12-18T13:17:43;99477.16;;;10.77;90.95
24422;BME280;12600;53.326;-6.298;2022-12-18T13:20:34;99474.97;;;10.82;90.67
24422;BME280;12600;53.326;-6.298;2022-12-18T13:23:32;99467.91;;;10.81;90.47
24422;BME280;12600;53.326;-6.298;2022-12-18T13:26:31;99447.44;;;10.75;90.47
24422;BME280;12600;53.326;-6.298;2022-12-18T13:29:44;99457.69;;;10.90;89.73
24422;BME280;12600;53.326;-6.298;2022-12-18T13:32:34;99428.91;;;10.93;90.06
24422;BME280;12600;53.326;-6.298;2022-12-18T13:35:42;99424.81;;;10.99;90.02
24422;BME280;12600;53.326;-6.298;2022-12-18T13:38:41;99421.16;;;11.07;89.83
24422;BME280;12600;53.326;-6.298;2022-12-18T13:41:32;99425.72;;;11.15;89.92
24422;BME280;12600;53.326;-6.298;2022-12-18T13:44:31;99412.25;;;11.23;89.42
24422;BME280;12600;53.326;-6.298;2022-12-18T13:47:35;99418.19;;;11.25;89.67
24422;BME280;12600;53.326;-6.298;2022-12-18T13:50:26;99415.31;;;11.33;89.46
24422;BME280;12600;53.326;-6.298;2022-12-18T13:53:42;99423.53;;;11.33;89.79
24422;BME280;12600;53.326;-6.298;2022-12-18T13:56:33;99391.50;;;11.34;89.05
24422;BME280;12600;53.326;-6.298;2022-12-18T13:59:25;99397.88;;;11.38;89.64
24422;BME280;12600;53.326;-6.298;2022-12-18T14:02:18;99407.44;;;11.44;89.51
24422;BME280;12600;53.326;-6.298;2022-12-18T14:05:22;99388.63;;;11.42;89.08
24422;BME280;12600;53.326;-6.298;2022-12-18T14:08:14;99381.31;;;11.46;89.24
24422;BME280;12600;53.326;-6.298;2022-12-18T14:11:05;99379.28;;;11.56;89.42
24422;BME280;12600;53.326;-6.298;2022-12-18T14:14:14;99366.47;;;11.60;88.71
24422;BME280;12600;53.326;-6.298;2022-12-18T14:17:09;99366.13;;;11.61;88.84
24422;BME280;12600;53.326;-6.298;2022-12-18T14:20:00;99364.19;;;11.62;88.92
24422;BME280;12600;53.326;-6.298;2022-12-18T14:22:50;99373.28;;;11.66;89.16
24422;BME280;12600;53.326;-6.298;2022-12-18T14:25:39;99371.34;;;11.66;88.84
24422;BME280;12600;53.326;-6.298;2022-12-18T14:28:43;99375.81;;;11.59;88.80
24422;BME280;12600;53.326;-6.298;2022-12-18T14:31:34;99372.75;;;11.60;88.84
24422;BME280;12600;53.326;-6.298;2022-12-18T14:34:26;99367.19;;;11.57;89.75
24422;BME280;12600;53.326;-6.298;2022-12-18T14:37:20;99353.09;;;11.70;89.48
24422;BME280;12600;53.326;-6.298;2022-12-18T14:40:13;99326.88;;;11.69;88.86
24422;BME280;12600;53.326;-6.298;2022-12-18T14:43:03;99323.91;;;11.74;89.67
24422;BME280;12600;53.326;-6.298;2022-12-18T14:45:53;99324.13;;;11.82;88.98
24422;BME280;12600;53.326;-6.298;2022-12-18T14:48:47;99320.59;;;11.81;88.83
24422;BME280;12600;53.326;-6.298;2022-12-18T14:51:37;99329.72;;;11.73;89.24
24422;BME280;12600;53.326;-6.298;2022-12-18T14:54:28;99324.13;;;11.69;88.89
24422;BME280;12600;53.326;-6.298;2022-12-18T14:57:22;99314.13;;;11.61;88.70
24422;BME280;12600;53.326;-6.298;2022-12-18T15:00:18;99333.75;;;11.63;88.76
24422;BME280;12600;53.326;-6.298;2022-12-18T15:03:08;99323.94;;;11.62;89.44
24422;BME280;12600;53.326;-6.298;2022-12-18T15:06:16;99303.31;;;11.65;89.57
24422;BME280;12600;53.326;-6.298;2022-12-18T15:09:22;99278.06;;;11.56;89.79
24422;BME280;12600;53.326;-6.298;2022-12-18T15:12:26;99288.72;;;11.61;89.98